Details From EGHQ - Newquay
To EGGD - Bristol International
Flight Number -
Tags generated
Created
Modified
Stats Distance 103 nm / 191 km
Max Altitude 11,400 ft / 3,475 m
Waypoints 3
Social Downloads 2
Likes 0
Share VATSIM

Download

Looking for another format? Having issues loading an existing format? Contact us
Advertisement - Login to hide

Notes

Basic altitude profile: - Ascent Rate: 2500ft/min - Ascent Speed: 250kts - Cruise Altitude: 35000ft - Cruise Speed: 420kts - Descent Rate: 1500ft/min - Descent Speed: 250kts Options: - Use NATs: yes - Use PACOTS: yes - Use low airways: yes - Use high airways: yes

Route

EGHQ DIDEL EGGD

ID Type Via Altitude Latitude Longitude Leg Dist Tot Dist Heading (true) Name
O EGHQ APT - 0 ft / 0 m 50.44076˚ -4.99533˚ - 0 nm - Newquay
DIDEL FIX - 11,400 ft / 3,475 m 50.84278˚ -3.99722˚ 45 nm 45 nm 57° / 58° -
O EGGD APT - 0 ft / 0 m 51.38266˚ -2.71892˚ 58 nm 103 nm 56° / 57° Bristol International

Altitude Profile

Advertisement - Login to hide

EGHQ

Details ICAO EGHQ
Name Newquay
Region United Kingdom
Timezone Europe/London (UTC+0.0)
Stats Elevation 389 ft / 119 m (AMSL)
Location 50.440759° -4.995334°
Runways 1
Magnetic Variation 2.044° W

METAR

EGHQ 180820Z VRB02KT CAVOK 06/05 Q1029

Decode

TAF

Not found

Departure Runways

ID Width Length Bearing (true) Bearing (mag) Surface Threshold Offset Overrun Length
12 148 ft / 45 m 9,006 ft / 2,745 m 120.58° 122.62° Asphalt 0 ft / 0 m 0 ft / 0 m
30 148 ft / 45 m 9,006 ft / 2,745 m 300.60° 302.64° Asphalt 1,014 ft / 309 m 0 ft / 0 m

EGGD

Details ICAO EGGD (BRS)
Name Bristol International
Region United Kingdom
Timezone Europe/London (UTC+0.0)
Stats Elevation 622 ft / 190 m (AMSL)
Location 51.382658° -2.718918°
Runways 1
Magnetic Variation 1.349° W

METAR

EGGD 180820Z AUTO 01006KT 9999 NCD 05/02 Q1029

Decode

TAF

TAF EGGD 180500Z 1806/1906 36005KT CAVOK PROB30 1821/1906 5000 BR

Decode

Destination Runways

ID Width Length Bearing (true) Bearing (mag) Surface Threshold Offset Overrun Length
09 148 ft / 45 m 6,655 ft / 2,029 m 86.42° 87.77° Asphalt 0 ft / 0 m 0 ft / 0 m
27 148 ft / 45 m 6,655 ft / 2,029 m 266.44° 267.79° Asphalt 499 ft / 152 m 0 ft / 0 m

Approach Navaids

Runway Type Ident Frequency Range Bearing (true) Bearing (mag) Slope Elevation
09 Localiser IBON 110.15 MHz 18 nm / 33 km 86.40° 87.75° - 622 ft / 190 m (AMSL)
09 Glidescope IBON 110.15 MHz 10 nm / 19 km 86.43° 87.78° 3.00° 622 ft / 190 m (AMSL)
09 DME IBON 110.15 MHz 18 nm / 33 km - - - 632 ft / 193 m (AMSL)
27 Localiser IBTS 110.15 MHz 18 nm / 33 km 266.47° 267.82° - 622 ft / 190 m (AMSL)
27 Glidescope IBTS 110.15 MHz 10 nm / 19 km 266.43° 267.78° 3.00° 632 ft / 193 m (AMSL)
27 DME IBTS 110.15 MHz 18 nm / 33 km - - - 631 ft / 192 m (AMSL)

Popular Alternatives